»·PEaware :: N441PW KRPX-KSHR

N441PW :: KRPX-KSHR

FLIGHT INFORMATION

Flight Status: Arrived
Operator: Privately registered:
United States
More flights under this callsign
Pilot: Stacy K. (11621)
Aircraft: CESSNA 404 TITAN
(C404)
More flights by this aircraft type
Origin: KRPX Roundup
United States
Destination: KSHR Sheridan Co
United States
More flights between these airports :: More routes between these airports
Route: BIL V611 KRONA SHR
File this flight plan on PilotEdge
Remarks: RMK / SIMBRIEF
Altitude:
(Current/Filed)
9,500ft
Speed:
(Current/Filed)
231kts
Departed: 14-Feb-20 01:42 PM
Arrived: 14-Feb-20 02:31 PM
Distance/Time
Traveled:
122nm/0:49
Distance/Time
To Go:
Arrived

Flight Plot

Page will automatically refresh every two minutes.


Map Options




Map Legend


Flown Route
Filed Route
Departure Airport
Arrival Airport
Navaid (VOR, NDB)
Fix

Horizontal Profiles

Position Reports

Time Latitude Longitude Heading Altitude Ground
Speed
14-Feb-20 13:07 46.470711 -108.549056 258 3495ft 0kts
14-Feb-20 13:08 46.470711 -108.549056 258 3495ft 0kts
14-Feb-20 13:09 46.470711 -108.549056 258 3495ft 0kts
14-Feb-20 13:10 46.470711 -108.549056 258 3495ft 0kts
14-Feb-20 13:11 46.470711 -108.549056 258 3495ft 0kts
14-Feb-20 13:12 46.470711 -108.549056 258 3495ft 0kts
14-Feb-20 13:13 46.470711 -108.549056 258 3495ft 0kts
14-Feb-20 13:14 46.470711 -108.549056 258 3495ft 0kts
14-Feb-20 13:15 46.470711 -108.549056 258 3495ft 0kts
14-Feb-20 13:16 46.470711 -108.549057 258 3495ft 0kts
14-Feb-20 13:17 46.470711 -108.549057 258 3495ft 0kts
14-Feb-20 13:18 46.470711 -108.549058 258 3495ft 0kts
14-Feb-20 13:20 46.470711 -108.549059 258 3495ft 0kts
14-Feb-20 13:21 46.470711 -108.549059 258 3495ft 0kts
14-Feb-20 13:22 46.470711 -108.549060 258 3495ft 0kts
14-Feb-20 13:29 46.470711 -108.549062 258 3495ft 0kts
14-Feb-20 13:30 46.470711 -108.549062 258 3495ft 0kts
14-Feb-20 13:31 46.470711 -108.549063 258 3495ft 0kts
14-Feb-20 13:32 46.470711 -108.549064 258 3495ft 0kts
14-Feb-20 13:33 46.470711 -108.549064 258 3495ft 0kts
14-Feb-20 13:34 46.470711 -108.549065 258 3495ft 0kts
14-Feb-20 13:35 46.470711 -108.549065 258 3495ft 0kts
14-Feb-20 13:36 46.470710 -108.549066 258 3495ft 0kts
14-Feb-20 13:37 46.470710 -108.549067 258 3495ft 0kts
14-Feb-20 13:38 46.470710 -108.549067 258 3495ft 0kts
14-Feb-20 13:39 46.471600 -108.548366 3 3495ft 14kts
14-Feb-20 13:40 46.473584 -108.548256 2 3495ft 0kts
14-Feb-20 13:41 46.475303 -108.540377 77 3503ft 107kts
14-Feb-20 13:42 46.463689 -108.486332 165 3997ft 203kts
14-Feb-20 13:43 46.419322 -108.530536 221 4600ft 196kts
14-Feb-20 13:44 46.369273 -108.537633 162 5561ft 180kts
14-Feb-20 13:45 46.324256 -108.506014 149 6424ft 181kts
14-Feb-20 13:46 46.280730 -108.468396 149 7271ft 183kts
14-Feb-20 13:47 46.238211 -108.429538 149 8046ft 178kts
14-Feb-20 13:48 46.196050 -108.438649 225 8789ft 183kts
14-Feb-20 13:49 46.163329 -108.494188 226 9563ft 179kts
14-Feb-20 13:50 46.133642 -108.545055 225 10174ft 156kts
14-Feb-20 13:51 46.102166 -108.584268 197 10634ft 148kts
14-Feb-20 13:52 46.061617 -108.593966 185 11083ft 147kts
14-Feb-20 13:53 46.018049 -108.599389 187 11413ft 166kts
14-Feb-20 13:54 45.970934 -108.605047 186 11818ft 173kts
14-Feb-20 13:55 45.922922 -108.610838 188 12272ft 172kts
14-Feb-20 13:56 45.876038 -108.616479 190 12749ft 167kts
14-Feb-20 13:57 45.828817 -108.622204 191 13185ft 169kts
14-Feb-20 13:58 45.788066 -108.590104 135 13629ft 185kts
14-Feb-20 13:59 45.754267 -108.534210 135 14076ft 186kts
14-Feb-20 14:00 45.720188 -108.477841 133 14520ft 187kts
14-Feb-20 14:01 45.686149 -108.421538 135 14971ft 187kts
14-Feb-20 14:02 45.652688 -108.366303 135 15403ft 188kts
14-Feb-20 14:03 45.618132 -108.309383 134 15844ft 190kts
14-Feb-20 14:04 45.583350 -108.252194 134 16285ft 191kts
14-Feb-20 14:05 45.548150 -108.194438 134 16727ft 193kts
14-Feb-20 14:06 45.512790 -108.136535 135 17174ft 194kts
14-Feb-20 14:07 45.477236 -108.078449 135 17622ft 194kts
14-Feb-20 14:08 45.441493 -108.020177 134 18048ft 196kts
14-Feb-20 14:09 45.405509 -107.961622 135 18467ft 196kts
14-Feb-20 14:10 45.369590 -107.903303 135 18864ft 196kts
14-Feb-20 14:11 45.333564 -107.844928 136 19248ft 195kts
14-Feb-20 14:12 45.297739 -107.787013 136 19606ft 195kts
14-Feb-20 14:13 45.261843 -107.729097 136 19951ft 195kts
14-Feb-20 14:14 45.225945 -107.671302 136 20277ft 195kts
14-Feb-20 14:15 45.190075 -107.613670 136 20585ft 194kts
14-Feb-20 14:17 45.154186 -107.556127 136 20879ft 194kts
14-Feb-20 14:18 45.118276 -107.498652 136 21145ft 195kts
14-Feb-20 14:19 45.079191 -107.436456 136 20433ft 229kts
14-Feb-20 14:20 45.035650 -107.367018 135 19411ft 239kts
14-Feb-20 14:21 45.000902 -107.287714 106 18431ft 245kts
14-Feb-20 14:22 44.982365 -107.195408 106 17500ft 244kts
14-Feb-20 14:23 44.961513 -107.104573 130 16574ft 239kts
14-Feb-20 14:24 44.904876 -107.067122 161 15816ft 219kts
14-Feb-20 14:25 44.852213 -107.034071 162 15894ft 201kts
14-Feb-20 14:26 44.796856 -107.000795 162 14563ft 236kts
14-Feb-20 14:27 44.730105 -106.960101 146 10034ft 276kts
14-Feb-20 14:28 44.719690 -106.875379 21 7235ft 215kts
14-Feb-20 14:29 44.762202 -106.919116 296 4789ft 185kts
14-Feb-20 14:30 44.774674 -106.974092 252 4032ft 118kts
14-Feb-20 14:31 44.767124 -106.997936 327 4101ft 22kts
14-Feb-20 14:32 44.770797 -106.989448 76 4026ft 36kts
14-Feb-20 14:33 44.770266 -106.986531 73 4025ft 5kts
14-Feb-20 14:34 44.771434 -106.981952 121 4025ft 14kts
14-Feb-20 14:34 44.771821 -106.980792 68 4025ft 0kts
14-Feb-20 14:36 44.773275 -106.975715 70 4025ft 13kts
14-Feb-20 14:37 44.773546 -106.971286 139 4025ft 14kts
14-Feb-20 14:38 44.773435 -106.970654 347 4025ft 0kts
14-Feb-20 14:38 44.773435 -106.970654 347 4025ft 0kts
14-Feb-20 14:39 44.773435 -106.970654 347 4025ft 0kts
14-Feb-20 14:40 44.773435 -106.970654 347 4025ft 0kts

Navigation Log

Ident Type
Flight plan parsing failed, navigation log unavailable